Time,TemperatureF,DewpointF,PressureIn,WindDirection,WindDirectionDegrees,WindSpeedMPH,WindSpeedGustMPH,Humidity,HourlyPrecipIn,Conditions,Clouds,dailyrainin,SoftwareType,DateUTC
2013-10-22 00:04:00,52.7,52.2,29.76,ENE,67,0.0,-999.0,98,-99.99,,,0.00,Acu-Link.com,2013-10-22 04:04:00,
2013-10-22 00:20:00,52.5,52.0,29.75,NW,315,0.0,-999.0,98,-99.99,,,0.00,Acu-Link.com,2013-10-22 04:20:00,
2013-10-22 00:35:00,52.5,52.0,29.75,South,180,0.0,-999.0,98,-99.99,,,0.00,Acu-Link.com,2013-10-22 04:35:00,
2013-10-22 00:50:00,52.9,52.4,29.75,SSW,202,0.0,-999.0,98,-99.99,,,0.00,Acu-Link.com,2013-10-22 04:50:00,
2013-10-22 01:05:00,52.7,52.2,29.76,NNW,337,0.0,-999.0,98,-99.99,,,0.00,Acu-Link.com,2013-10-22 05:05:00,
2013-10-22 01:20:00,52.7,52.2,29.75,ENE,67,0.0,-999.0,98,-99.99,,,0.00,Acu-Link.com,2013-10-22 05:20:00,
2013-10-22 01:35:00,52.7,52.2,29.76,NNE,22,0.0,-999.0,98,-99.99,,,0.00,Acu-Link.com,2013-10-22 05:35:00,
2013-10-22 01:51:00,52.9,52.4,29.76,West,270,0.0,-999.0,98,-99.99,,,0.00,Acu-Link.com,2013-10-22 05:51:00,
2013-10-22 02:06:00,52.9,52.4,29.76,East,90,0.0,-999.0,98,-99.99,,,0.00,Acu-Link.com,2013-10-22 06:06:00,
2013-10-22 02:21:00,52.9,52.4,29.75,NNE,22,0.0,-999.0,98,-99.99,,,0.00,Acu-Link.com,2013-10-22 06:21:00,
2013-10-22 02:36:00,52.9,52.4,29.76,WNW,292,0.0,-999.0,98,-99.99,,,0.00,Acu-Link.com,2013-10-22 06:36:00,
2013-10-22 02:52:00,53.1,52.5,29.76,NW,315,0.0,-999.0,98,-99.99,,,0.00,Acu-Link.com,2013-10-22 06:52:00,
2013-10-22 03:09:00,53.1,52.5,29.76,NW,315,0.0,-999.0,98,-99.99,,,0.00,Acu-Link.com,2013-10-22 07:09:00,
2013-10-22 03:24:00,53.1,52.5,29.75,North,0,0.0,-999.0,98,-99.99,,,0.00,Acu-Link.com,2013-10-22 07:24:00,
2013-10-22 03:39:00,53.1,52.5,29.75,NW,315,0.0,-999.0,98,-99.99,,,0.00,Acu-Link.com,2013-10-22 07:39:00,
2013-10-22 03:54:00,53.1,52.5,29.75,WNW,292,0.0,-999.0,98,-99.99,,,0.00,Acu-Link.com,2013-10-22 07:54:00,
2013-10-22 04:09:00,53.1,52.5,29.76,WSW,247,0.0,-999.0,98,-99.99,,,0.00,Acu-Link.com,2013-10-22 08:09:00,
2013-10-22 04:25:00,53.1,52.5,29.76,WSW,247,0.0,-999.0,98,-99.99,,,0.00,Acu-Link.com,2013-10-22 08:25:00,
2013-10-22 04:40:00,53.1,52.5,29.75,SW,225,0.0,-999.0,98,-99.99,,,0.00,Acu-Link.com,2013-10-22 08:40:00,
2013-10-22 04:56:00,52.9,52.4,29.75,SSW,202,2.2,-999.0,98,-99.99,,,0.00,Acu-Link.com,2013-10-22 08:56:00,
2013-10-22 05:11:00,52.7,52.2,29.74,NNE,22,0.0,-999.0,98,-99.99,,,0.00,Acu-Link.com,2013-10-22 09:11:00,
2013-10-22 05:26:00,52.5,52.0,29.74,NNW,337,0.0,-999.0,98,-99.99,,,0.00,Acu-Link.com,2013-10-22 09:26:00,
2013-10-22 05:41:00,52.3,51.8,29.74,South,180,1.7,-999.0,98,-99.99,,,0.00,Acu-Link.com,2013-10-22 09:41:00,
2013-10-22 05:56:00,52.3,51.8,29.73,SSW,202,0.0,-999.0,98,-99.99,,,0.00,Acu-Link.com,2013-10-22 09:56:00,
2013-10-22 06:11:00,52.0,51.5,29.73,NNW,337,0.0,-999.0,98,-99.99,,,0.00,Acu-Link.com,2013-10-22 10:11:00,
2013-10-22 06:26:00,51.8,51.3,29.72,SW,225,0.0,-999.0,98,-99.99,,,0.00,Acu-Link.com,2013-10-22 10:26:00,
2013-10-22 06:42:00,51.4,50.9,29.71,SSW,202,0.0,-999.0,98,-99.99,,,0.00,Acu-Link.com,2013-10-22 10:42:00,
2013-10-22 06:57:00,51.4,50.9,29.72,South,180,0.0,-999.0,98,-99.99,,,0.00,Acu-Link.com,2013-10-22 10:57:00,
2013-10-22 07:12:00,51.4,50.9,29.72,ENE,67,0.0,-999.0,98,-99.99,,,0.00,Acu-Link.com,2013-10-22 11:12:00,
2013-10-22 07:27:00,51.1,50.6,29.73,WNW,292,0.0,-999.0,98,-99.99,,,0.00,Acu-Link.com,2013-10-22 11:27:00,
2013-10-22 07:43:00,51.4,50.9,29.72,SSW,202,0.0,-999.0,98,-99.99,,,0.00,Acu-Link.com,2013-10-22 11:43:00,
2013-10-22 07:58:00,51.3,50.8,29.73,NE,45,0.0,-999.0,98,-99.99,,,0.00,Acu-Link.com,2013-10-22 11:58:00,
2013-10-22 08:13:00,51.6,51.1,29.73,SSW,202,2.2,-999.0,98,-99.99,,,0.00,Acu-Link.com,2013-10-22 12:13:00,
2013-10-22 08:28:00,51.6,51.1,29.73,North,0,0.0,-999.0,98,-99.99,,,0.00,Acu-Link.com,2013-10-22 12:28:00,
2013-10-22 08:43:00,52.0,51.5,29.74,WNW,292,0.0,-999.0,98,-99.99,,,0.00,Acu-Link.com,2013-10-22 12:43:00,
2013-10-22 08:58:00,52.5,52.0,29.75,North,0,0.0,-999.0,98,-99.99,,,0.00,Acu-Link.com,2013-10-22 12:58:00,
2013-10-22 09:13:00,54.0,53.4,29.75,ESE,112,0.0,-999.0,98,-99.99,,,0.00,Acu-Link.com,2013-10-22 13:13:00,
2013-10-22 09:28:00,56.1,55.5,29.74,South,180,1.1,-999.0,98,-99.99,,,0.00,Acu-Link.com,2013-10-22 13:28:00,
2013-10-22 09:44:00,57.7,57.1,29.74,ENE,67,0.0,-999.0,98,-99.99,,,0.00,Acu-Link.com,2013-10-22 13:44:00,
2013-10-22 09:59:00,60.1,58.1,29.73,ESE,112,1.7,-999.0,93,-99.99,,,0.00,Acu-Link.com,2013-10-22 13:59:00,
2013-10-22 10:14:00,61.7,58.1,29.74,NE,45,2.7,-999.0,88,-99.99,,,0.00,Acu-Link.com,2013-10-22 14:14:00,
2013-10-22 10:29:00,62.2,58.0,29.72,East,90,3.2,-999.0,86,-99.99,,,0.00,Acu-Link.com,2013-10-22 14:29:00,
2013-10-22 10:44:00,63.0,58.4,29.73,East,90,4.7,-999.0,85,-99.99,,,0.00,Acu-Link.com,2013-10-22 14:44:00,
2013-10-22 10:59:00,63.5,58.2,29.73,North,0,3.2,-999.0,83,-99.99,,,0.00,Acu-Link.com,2013-10-22 14:59:00,
2013-10-22 11:15:00,63.1,57.2,29.72,NNE,22,5.3,-999.0,81,-99.99,,,0.00,Acu-Link.com,2013-10-22 15:15:00,
2013-10-22 11:30:00,65.8,58.0,29.72,NE,45,2.7,-999.0,76,-99.99,,,0.00,Acu-Link.com,2013-10-22 15:30:00,
2013-10-22 11:45:00,68.0,59.4,29.71,North,0,2.7,-999.0,74,-99.99,,,0.00,Acu-Link.com,2013-10-22 15:45:00,
2013-10-22 12:01:00,66.4,58.6,29.70,ENE,67,1.1,-999.0,76,-99.99,,,0.00,Acu-Link.com,2013-10-22 16:01:00,
2013-10-22 12:16:00,66.2,58.4,29.70,NE,45,1.7,-999.0,76,-99.99,,,0.00,Acu-Link.com,2013-10-22 16:16:00,
2013-10-22 12:31:00,66.4,57.5,29.69,NNE,22,2.2,-999.0,73,-99.99,,,0.00,Acu-Link.com,2013-10-22 16:31:00,
2013-10-22 12:46:00,67.6,57.9,29.68,North,0,3.7,-999.0,71,-99.99,,,0.00,Acu-Link.com,2013-10-22 16:46:00,
2013-10-22 13:02:00,68.2,58.4,29.67,NNW,337,2.7,-999.0,71,-99.99,,,0.00,Acu-Link.com,2013-10-22 17:02:00,
2013-10-22 13:17:00,69.3,58.7,29.66,WSW,247,3.7,-999.0,69,-99.99,,,0.00,Acu-Link.com,2013-10-22 17:17:00,
2013-10-22 13:32:00,69.6,58.6,29.65,NNW,337,3.7,-999.0,68,-99.99,,,0.00,Acu-Link.com,2013-10-22 17:32:00,
2013-10-22 13:47:00,69.1,57.7,29.65,NNW,337,4.7,-999.0,67,-99.99,,,0.00,Acu-Link.com,2013-10-22 17:47:00,
2013-10-22 14:02:00,67.6,57.5,29.64,East,90,4.2,-999.0,70,-99.99,,,0.00,Acu-Link.com,2013-10-22 18:02:00,
2013-10-22 14:17:00,67.6,57.9,29.63,NW,315,1.7,-999.0,71,-99.99,,,0.00,Acu-Link.com,2013-10-22 18:17:00,
2013-10-22 14:33:00,68.7,57.7,29.62,North,0,2.7,-999.0,68,-99.99,,,0.00,Acu-Link.com,2013-10-22 18:33:00,
2013-10-22 14:48:00,68.4,58.6,29.63,North,0,2.2,-999.0,71,-99.99,,,0.00,Acu-Link.com,2013-10-22 18:48:00,
2013-10-22 15:03:00,67.6,58.6,29.63,NNE,22,6.3,-999.0,73,-99.99,,,0.00,Acu-Link.com,2013-10-22 19:03:00,
2013-10-22 15:18:00,68.5,59.5,29.62,ENE,67,3.7,-999.0,73,-99.99,,,0.00,Acu-Link.com,2013-10-22 19:18:00,
2013-10-22 15:33:00,68.0,58.6,29.62,North,0,3.7,-999.0,72,-99.99,,,0.00,Acu-Link.com,2013-10-22 19:33:00,
2013-10-22 15:48:00,69.6,58.1,29.61,NNE,22,4.2,-999.0,67,-99.99,,,0.00,Acu-Link.com,2013-10-22 19:48:00,
2013-10-22 16:03:00,69.3,57.4,29.61,ESE,112,1.7,-999.0,66,-99.99,,,0.00,Acu-Link.com,2013-10-22 20:03:00,
2013-10-22 16:18:00,69.6,57.7,29.61,NNW,337,5.3,-999.0,66,-99.99,,,0.00,Acu-Link.com,2013-10-22 20:18:00,
2013-10-22 16:33:00,69.3,57.4,29.61,South,180,2.7,-999.0,66,-99.99,,,0.00,Acu-Link.com,2013-10-22 20:33:00,
2013-10-22 16:48:00,68.7,57.7,29.60,SSE,157,2.7,-999.0,68,-99.99,,,0.00,Acu-Link.com,2013-10-22 20:48:00,
2013-10-22 17:04:00,67.5,57.8,29.60,NE,45,2.2,-999.0,71,-99.99,,,0.00,Acu-Link.com,2013-10-22 21:04:00,
2013-10-22 17:19:00,68.4,58.6,29.60,NNW,337,0.0,-999.0,71,-99.99,,,0.00,Acu-Link.com,2013-10-22 21:19:00,
2013-10-22 17:34:00,66.2,56.9,29.59,WSW,247,2.2,-999.0,72,-99.99,,,0.00,Acu-Link.com,2013-10-22 21:34:00,
2013-10-22 17:49:00,67.1,57.4,29.59,North,0,2.2,-999.0,71,-99.99,,,0.00,Acu-Link.com,2013-10-22 21:49:00,
2013-10-22 18:04:00,66.6,57.7,29.59,NE,45,0.0,-999.0,73,-99.99,,,0.00,Acu-Link.com,2013-10-22 22:04:00,
2013-10-22 18:19:00,65.3,57.5,29.60,NNW,337,3.2,-999.0,76,-99.99,,,0.00,Acu-Link.com,2013-10-22 22:19:00,
2013-10-22 18:34:00,64.6,57.6,29.61,NNW,337,0.0,-999.0,78,-99.99,,,0.00,Acu-Link.com,2013-10-22 22:34:00,
2013-10-22 18:49:00,63.3,57.4,29.60,WNW,292,0.0,-999.0,81,-99.99,,,0.00,Acu-Link.com,2013-10-22 22:49:00,
2013-10-22 19:04:00,61.7,56.8,29.59,West,270,0.0,-999.0,84,-99.99,,,0.00,Acu-Link.com,2013-10-22 23:04:00,
2013-10-22 19:20:00,60.1,56.2,29.59,SSW,202,0.0,-999.0,87,-99.99,,,0.00,Acu-Link.com,2013-10-22 23:20:00,
2013-10-22 19:35:00,58.5,56.2,29.60,SSW,202,0.0,-999.0,92,-99.99,,,0.00,Acu-Link.com,2013-10-22 23:35:00,
2013-10-22 19:50:00,57.4,56.0,29.60,SSW,202,0.0,-999.0,95,-99.99,,,0.00,Acu-Link.com,2013-10-22 23:50:00,
2013-10-22 20:05:00,56.3,55.2,29.61,NW,315,0.0,-999.0,96,-99.99,,,0.00,Acu-Link.com,2013-10-23 00:05:00,
2013-10-22 20:20:00,55.4,54.6,29.61,ESE,112,0.0,-999.0,97,-99.99,,,0.00,Acu-Link.com,2013-10-23 00:20:00,
2013-10-22 20:35:00,54.9,54.3,29.61,SSW,202,0.0,-999.0,98,-99.99,,,0.00,Acu-Link.com,2013-10-23 00:35:00,
2013-10-22 20:51:00,55.2,54.6,29.62,West,270,0.0,-999.0,98,-99.99,,,0.00,Acu-Link.com,2013-10-23 00:51:00,
2013-10-22 21:06:00,54.9,54.3,29.61,West,270,0.0,-999.0,98,-99.99,,,0.00,Acu-Link.com,2013-10-23 01:06:00,
2013-10-22 21:21:00,54.3,53.7,29.62,NNW,337,0.0,-999.0,98,-99.99,,,0.00,Acu-Link.com,2013-10-23 01:21:00,
2013-10-22 21:36:00,54.1,53.5,29.61,WNW,292,0.0,-999.0,98,-99.99,,,0.00,Acu-Link.com,2013-10-23 01:36:00,
2013-10-22 21:51:00,53.8,53.2,29.61,West,270,0.0,-999.0,98,-99.99,,,0.00,Acu-Link.com,2013-10-23 01:51:00,
2013-10-22 22:06:00,53.4,52.8,29.61,NW,315,0.0,-999.0,98,-99.99,,,0.00,Acu-Link.com,2013-10-23 02:06:00,
2013-10-22 22:21:00,52.9,52.4,29.61,SW,225,0.0,-999.0,98,-99.99,,,0.00,Acu-Link.com,2013-10-23 02:21:00,
2013-10-22 22:36:00,52.3,51.8,29.61,SSE,157,0.0,-999.0,98,-99.99,,,0.00,Acu-Link.com,2013-10-23 02:36:00,
2013-10-22 22:51:00,51.6,51.1,29.61,West,270,0.0,-999.0,98,-99.99,,,0.00,Acu-Link.com,2013-10-23 02:51:00,
2013-10-22 23:07:00,51.1,50.6,29.62,SSW,202,0.0,-999.0,98,-99.99,,,0.00,Acu-Link.com,2013-10-23 03:07:00,
2013-10-22 23:22:00,50.9,50.4,29.61,West,270,1.1,-999.0,98,-99.99,,,0.00,Acu-Link.com,2013-10-23 03:22:00,
2013-10-22 23:37:00,50.9,50.4,29.62,SE,135,0.0,-999.0,98,-99.99,,,0.00,Acu-Link.com,2013-10-23 03:37:00,
2013-10-22 23:52:00,51.1,50.6,29.61,SW,225,0.0,-999.0,98,-99.99,,,0.00,Acu-Link.com,2013-10-23 03:52:00,